Time;durP1;ratioP1;P1;durP2;ratioP2;P2;SDS_P1;SDS_P2;PMS_P1;PMS_P2;Temp;Humidity;BMP_temperature;BMP_pressure;BME280_temperature;BME280_humidity;BME280_pressure;Samples;Min_cycle;Max_cycle;Signal;HPM_P1;HPM_P2
2022/05/04 00:00:44;;;;;;;7.53;2.08;;;8.80;99.90;;;;;;5030327;28;20038;-85
2022/05/04 00:03:10;;;;;;;7.50;1.83;;;8.80;99.90;;;;;;5014191;28;20037;-85
2022/05/04 00:05:36;;;;;;;6.68;2.00;;;8.80;99.90;;;;;;5024691;28;20087;-85
2022/05/04 00:08:01;;;;;;;9.75;2.28;;;8.90;99.90;;;;;;5033751;28;20048;-85
2022/05/04 00:10:27;;;;;;;8.25;2.20;;;8.90;99.90;;;;;;5032554;28;20056;-85
2022/05/04 00:12:53;;;;;;;7.05;1.65;;;8.80;99.90;;;;;;5020958;28;20049;-86
2022/05/04 00:15:18;;;;;;;6.85;1.92;;;8.90;99.90;;;;;;5025444;28;20037;-85
2022/05/04 00:17:44;;;;;;;5.68;2.00;;;8.90;99.90;;;;;;5032084;28;20059;-86
2022/05/04 00:20:09;;;;;;;8.48;1.92;;;8.90;99.90;;;;;;5049123;28;20033;-86
2022/05/04 00:22:35;;;;;;;8.18;2.50;;;9.00;99.90;;;;;;5047660;28;20033;-85
2022/05/04 00:25:02;;;;;;;10.73;2.28;;;9.00;99.90;;;;;;5048691;28;20037;-85
2022/05/04 00:27:27;;;;;;;8.43;2.67;;;8.90;99.90;;;;;;5048747;28;20036;-85
2022/05/04 00:29:53;;;;;;;6.93;2.00;;;8.90;99.90;;;;;;5032336;28;20043;-85
2022/05/04 00:32:18;;;;;;;11.57;2.35;;;8.90;99.90;;;;;;5025141;28;20037;-85
2022/05/04 00:34:44;;;;;;;8.23;2.20;;;8.80;99.90;;;;;;5013137;28;20393;-85
2022/05/04 00:37:10;;;;;;;6.97;2.00;;;8.80;99.90;;;;;;5013724;28;20041;-86
2022/05/04 00:39:36;;;;;;;7.05;2.20;;;8.70;99.90;;;;;;5013994;28;20388;-85
2022/05/04 00:42:13;;;;;;;7.30;1.92;;;8.70;99.90;;;;;;5049357;28;20045;-86
2022/05/04 00:44:39;;;;;;;7.85;2.40;;;8.70;99.90;;;;;;5013919;28;20130;-86
2022/05/04 00:47:06;;;;;;;11.15;2.05;;;8.50;99.90;;;;;;5032264;28;20040;-86
2022/05/04 00:49:32;;;;;;;8.38;2.25;;;8.50;99.90;;;;;;5031551;28;20411;-86
2022/05/04 00:51:58;;;;;;;7.85;2.30;;;8.50;99.90;;;;;;5029376;28;20048;-86
2022/05/04 00:54:24;;;;;;;7.97;2.08;;;8.50;99.90;;;;;;5018588;28;20049;-86
2022/05/04 01:00:51;;;;;;;5.93;2.05;;;9.00;99.90;;;;;;4996209;28;20042;-86
2022/05/04 01:11:06;;;;;;;11.38;2.10;;;8.60;99.90;;;;;;4954665;28;20033;-87
2022/05/04 01:14:29;;;;;;;9.15;2.10;;;8.50;99.90;;;;;;5006968;28;20117;-86
2022/05/04 01:22:17;;;;;;;;;;;;;;;;;;;;;
2022/05/04 01:25:09;;;;;;;5.65;1.77;;;8.20;99.90;;;;;;4979549;28;20516;-86
2022/05/04 01:29:16;;;;;;;7.40;2.22;;;8.40;99.90;;;;;;5035368;28;20049;-87
2022/05/04 01:35:58;;;;;;;5.28;1.80;;;8.60;99.90;;;;;;5050884;28;20041;-86
2022/05/04 01:39:27;;;;;;;9.57;2.53;;;8.70;99.90;;;;;;4961804;28;20078;-86
2022/05/04 01:42:34;;;;;;;8.18;2.13;;;8.50;99.90;;;;;;4933110;28;20047;-86
2022/05/04 01:45:57;;;;;;;5.43;2.30;;;8.50;99.90;;;;;;4944804;29;20130;-87
2022/05/04 01:52:32;;;;;;;;;;;;;;;;;;;;;
2022/05/04 01:59:13;;;;;;;8.70;2.35;;;8.50;99.90;;;;;;5023922;28;20044;-87
2022/05/04 02:02:51;;;;;;;;;;;;;;;;;;;;;
2022/05/04 02:10:29;;;;;;;;;;;;;;;;;;;;;
2022/05/04 02:17:53;;;;;;;;;;;;;;;;;;;;;
2022/05/04 02:21:21;;;;;;;9.23;2.40;;;8.20;99.90;;;;;;4982032;28;20042;-87
2022/05/04 02:24:37;;;;;;;;;;;;;;;;;;;;;
2022/05/04 02:27:39;;;;;;;5.88;2.05;;;8.30;99.90;;;;;;5037917;28;20102;-88
2022/05/04 02:30:16;;;;;;;6.88;2.10;;;8.40;99.90;;;;;;5016237;28;20116;-88
2022/05/04 02:33:12;;;;;;;;;;;;;;;;;;;;;
2022/05/04 02:39:07;;;;;;;9.52;2.03;;;8.30;99.90;;;;;;5032419;28;20105;-88
2022/05/04 02:41:59;;;;;;;8.25;2.15;;;8.20;99.90;;;;;;5019635;28;20196;-88
2022/05/04 02:44:47;;;;;;;9.18;2.13;;;8.50;99.90;;;;;;5032216;28;20053;-88
2022/05/04 02:47:24;;;;;;;9.60;2.28;;;8.30;99.90;;;;;;5052351;28;20483;-89
2022/05/04 02:50:19;;;;;;;;;;;8.30;99.90;;;;;;5034730;28;20052;-88
2022/05/04 02:53:43;;;;;;;8.73;2.10;;;8.30;99.90;;;;;;5004786;28;19917;-88
2022/05/04 02:56:23;;;;;;;5.75;2.13;;;8.00;99.90;;;;;;5014950;28;20103;-89
2022/05/04 02:59:12;;;;;;;;;;;;;;;;;;;;;
2022/05/04 03:04:59;;;;;;;5.88;2.00;;;8.10;99.90;;;;;;5031379;28;20136;-88
2022/05/04 03:08:05;;;;;;;9.15;2.50;;;8.10;99.90;;;;;;5031654;28;20042;-88
2022/05/04 03:14:08;;;;;;;5.32;2.20;;;8.60;99.90;;;;;;5031466;28;20047;-89
2022/05/04 03:16:50;;;;;;;10.35;2.17;;;8.30;99.90;;;;;;5033405;28;20094;-87
2022/05/04 03:19:25;;;;;;;7.93;2.40;;;8.50;99.90;;;;;;5035387;28;20041;-88
2022/05/04 03:22:01;;;;;;;6.18;2.30;;;8.40;99.90;;;;;;5035599;28;20145;-88
2022/05/04 03:24:29;;;;;;;7.97;2.40;;;8.00;99.90;;;;;;5035194;28;20040;-89
2022/05/04 03:26:55;;;;;;;5.65;2.20;;;8.40;99.90;;;;;;5051005;28;20071;-88
2022/05/04 03:29:21;;;;;;;10.60;2.75;;;8.50;99.90;;;;;;5034715;28;20040;-89
2022/05/04 03:31:47;;;;;;;9.68;2.20;;;8.10;99.90;;;;;;5031264;28;20050;-88
2022/05/04 03:34:15;;;;;;;6.13;2.42;;;8.90;99.90;;;;;;5046134;28;20045;-88
2022/05/04 03:36:46;;;;;;;8.23;2.55;;;8.70;99.90;;;;;;5034043;28;20041;-88
2022/05/04 03:39:15;;;;;;;9.27;2.25;;;8.10;99.90;;;;;;5034561;28;20062;-88
2022/05/04 03:41:44;;;;;;;7.45;2.50;;;8.10;99.90;;;;;;5034162;28;20490;-88
2022/05/04 03:44:16;;;;;;;8.55;2.17;;;8.70;99.90;;;;;;5032215;28;20369;-88
2022/05/04 03:47:17;;;;;;;5.25;2.35;;;8.20;99.90;;;;;;5023033;28;20038;-88
2022/05/04 03:49:49;;;;;;;7.65;2.17;;;8.00;99.90;;;;;;5022021;28;20120;-87
2022/05/04 03:52:59;;;;;;;6.30;2.30;;;8.30;99.90;;;;;;5035493;28;20051;-88
2022/05/04 03:55:25;;;;;;;8.95;2.63;;;8.30;99.90;;;;;;5027099;28;20088;-88
2022/05/04 03:57:56;;;;;;;10.10;2.33;;;7.90;99.90;;;;;;5034082;28;20079;-88
2022/05/04 04:00:25;;;;;;;10.38;2.80;;;8.20;99.90;;;;;;5034694;28;20501;-88
2022/05/04 04:03:01;;;;;;;10.23;2.30;;;8.00;99.90;;;;;;5036785;28;20125;-88
2022/05/04 04:05:28;;;;;;;10.27;2.55;;;8.00;99.90;;;;;;5034031;28;20084;-87
2022/05/04 04:07:58;;;;;;;14.48;3.00;;;8.10;99.90;;;;;;5050548;28;20457;-88
2022/05/04 04:10:41;;;;;;;9.68;3.05;;;9.00;99.90;;;;;;5034503;28;20040;-89
2022/05/04 04:13:15;;;;;;;15.30;3.22;;;8.30;99.90;;;;;;5034038;28;20032;-89
2022/05/04 04:15:55;;;;;;;9.63;2.45;;;8.10;99.90;;;;;;5021025;28;20045;-88
2022/05/04 04:18:26;;;;;;;8.15;3.15;;;8.10;99.90;;;;;;5034404;28;20128;-88
2022/05/04 04:23:46;;;;;;;9.55;2.95;;;8.20;99.90;;;;;;5057044;28;20114;-87
2022/05/04 04:26:17;;;;;;;14.05;3.10;;;7.70;99.90;;;;;;5050014;28;20538;-88
2022/05/04 04:28:43;;;;;;;7.88;2.75;;;8.30;99.90;;;;;;5028210;28;20051;-88
2022/05/04 04:31:12;;;;;;;9.15;2.40;;;8.10;99.90;;;;;;5037920;28;20413;-87
2022/05/04 04:33:38;;;;;;;6.00;2.20;;;8.50;99.90;;;;;;5046560;28;20135;-87
2022/05/04 04:36:04;;;;;;;9.20;2.35;;;8.00;99.90;;;;;;5034416;28;20139;-88
2022/05/04 04:38:30;;;;;;;8.20;2.83;;;8.00;99.90;;;;;;5035092;28;20119;-88
2022/05/04 04:40:56;;;;;;;8.88;2.95;;;8.30;99.90;;;;;;5046301;28;20053;-88
2022/05/04 04:43:22;;;;;;;6.43;2.22;;;7.80;99.90;;;;;;5028729;28;20468;-88
2022/05/04 04:45:51;;;;;;;6.80;2.47;;;9.00;99.90;;;;;;5030618;28;20067;-87
2022/05/04 04:48:21;;;;;;;12.30;2.78;;;8.10;99.90;;;;;;5053328;28;20056;-88
2022/05/04 04:50:47;;;;;;;8.13;2.75;;;8.40;99.90;;;;;;5052922;28;20060;-87
2022/05/04 04:53:13;;;;;;;8.25;2.65;;;8.10;99.90;;;;;;5052634;28;20072;-87
2022/05/04 04:55:45;;;;;;;9.35;2.67;;;8.50;99.90;;;;;;5054213;28;20127;-87
2022/05/04 04:58:10;;;;;;;7.07;2.50;;;8.20;99.90;;;;;;5036818;28;20037;-86
2022/05/04 05:00:36;;;;;;;8.95;2.63;;;8.30;99.90;;;;;;5053615;28;20033;-86
2022/05/04 05:03:02;;;;;;;9.48;2.67;;;8.60;99.90;;;;;;5024980;28;20048;-86
2022/05/04 05:05:28;;;;;;;7.40;2.50;;;8.30;99.90;;;;;;5034836;28;20041;-86
2022/05/04 05:07:54;;;;;;;6.38;2.80;;;8.10;99.90;;;;;;5019054;28;20455;-87
2022/05/04 05:10:19;;;;;;;6.00;2.60;;;9.30;99.90;;;;;;5022275;28;20152;-86
2022/05/04 05:12:45;;;;;;;10.35;2.60;;;8.40;99.90;;;;;;5053016;28;20445;-86
2022/05/04 05:17:56;;;;;;;7.80;2.58;;;9.00;99.90;;;;;;5053362;28;20128;-86
2022/05/04 05:20:21;;;;;;;7.65;2.65;;;8.50;99.90;;;;;;5054606;28;20072;-86
2022/05/04 05:22:47;;;;;;;11.93;2.80;;;8.50;99.90;;;;;;5033892;28;20068;-86
2022/05/04 05:25:12;;;;;;;9.57;2.70;;;8.50;99.90;;;;;;5040256;28;20037;-86
2022/05/04 05:27:38;;;;;;;11.25;2.83;;;8.50;99.90;;;;;;5051994;28;20044;-86
2022/05/04 05:30:05;;;;;;;8.25;2.30;;;8.60;99.90;;;;;;5036584;28;20084;-85
2022/05/04 05:32:30;;;;;;;8.68;2.40;;;8.60;99.90;;;;;;5053537;28;20087;-85
2022/05/04 05:34:56;;;;;;;8.27;2.00;;;8.60;99.90;;;;;;5024612;28;20045;-86
2022/05/04 05:37:22;;;;;;;6.13;2.15;;;8.60;99.90;;;;;;5052272;28;20044;-86
2022/05/04 05:39:48;;;;;;;7.50;2.45;;;8.60;99.90;;;;;;5035909;28;20040;-85
2022/05/04 05:42:13;;;;;;;6.88;2.15;;;8.70;99.90;;;;;;5053953;28;20047;-86
2022/05/04 05:44:39;;;;;;;6.43;2.20;;;8.60;99.90;;;;;;5038432;28;21734;-86
2022/05/04 05:47:05;;;;;;;9.70;2.53;;;8.60;99.90;;;;;;5047334;28;20041;-86
2022/05/04 05:49:31;;;;;;;9.98;2.10;;;8.50;99.90;;;;;;5058186;28;20056;-86
2022/05/04 05:51:57;;;;;;;7.63;2.22;;;9.10;99.90;;;;;;5057137;28;20036;-87
2022/05/04 05:54:23;;;;;;;8.60;2.28;;;8.50;99.90;;;;;;5055991;28;20114;-86
2022/05/04 05:56:48;;;;;;;8.75;1.92;;;8.50;99.90;;;;;;5056447;28;20040;-86
2022/05/04 05:59:14;;;;;;;4.43;1.80;;;8.50;99.90;;;;;;5056157;28;20047;-86
2022/05/04 06:01:41;;;;;;;8.73;2.58;;;8.50;99.90;;;;;;5039345;28;20044;-86
2022/05/04 06:04:07;;;;;;;7.93;2.20;;;7.70;99.90;;;;;;5054650;28;20465;-86
2022/05/04 06:06:33;;;;;;;9.70;2.30;;;8.40;99.90;;;;;;5040164;28;20053;-86
2022/05/04 06:09:02;;;;;;;13.43;2.47;;;8.80;99.90;;;;;;5057298;28;20560;-86
2022/05/04 06:11:28;;;;;;;9.45;2.38;;;8.50;99.90;;;;;;5038927;28;20037;-86
2022/05/04 06:13:53;;;;;;;9.80;2.70;;;8.40;99.90;;;;;;5021804;28;20106;-86
2022/05/04 06:16:20;;;;;;;8.73;2.38;;;9.00;99.90;;;;;;5042735;28;20041;-86
2022/05/04 06:18:48;;;;;;;6.13;2.03;;;8.50;99.90;;;;;;5056089;28;20513;-86
2022/05/04 06:21:14;;;;;;;6.97;2.20;;;8.40;99.90;;;;;;5051650;28;20485;-86
2022/05/04 06:23:42;;;;;;;11.98;2.30;;;8.90;99.90;;;;;;5039938;28;20083;-86
2022/05/04 06:26:08;;;;;;;11.10;2.30;;;8.60;99.90;;;;;;5048596;28;20037;-86
2022/05/04 06:28:41;;;;;;;8.27;2.20;;;9.00;99.90;;;;;;5040073;28;20118;-85
2022/05/04 06:34:11;;;;;;;8.80;2.28;;;9.00;99.90;;;;;;5053430;28;20072;-85
2022/05/04 06:36:41;;;;;;;5.90;2.25;;;9.30;99.90;;;;;;5053894;28;20426;-85
2022/05/04 06:39:11;;;;;;;6.80;2.30;;;8.60;99.90;;;;;;5049221;28;20071;-86
2022/05/04 06:41:45;;;;;;;5.82;2.08;;;9.20;99.90;;;;;;5040318;28;20037;-86
2022/05/04 06:44:13;;;;;;;8.75;2.10;;;9.80;99.90;;;;;;5039340;28;20446;-85
2022/05/04 06:46:38;;;;;;;7.15;2.30;;;8.90;99.90;;;;;;5056380;28;20116;-86
2022/05/04 06:49:11;;;;;;;7.25;2.20;;;9.30;99.90;;;;;;5039364;28;20064;-87
2022/05/04 06:51:37;;;;;;;7.57;2.10;;;9.20;99.90;;;;;;5037571;28;20044;-85
2022/05/04 06:54:05;;;;;;;7.60;2.28;;;9.30;99.90;;;;;;5036365;28;20053;-85
2022/05/04 06:56:33;;;;;;;9.68;2.20;;;9.80;99.90;;;;;;5039321;28;20411;-86
2022/05/04 06:59:04;;;;;;;5.70;2.10;;;9.30;99.90;;;;;;5037942;28;20064;-85
2022/05/04 07:01:35;;;;;;;7.80;2.10;;;10.00;99.90;;;;;;5036827;28;20049;-85
2022/05/04 07:04:04;;;;;;;7.13;1.92;;;9.60;99.90;;;;;;5031168;28;20045;-85
2022/05/04 07:06:31;;;;;;;5.97;2.00;;;9.40;99.90;;;;;;5022384;28;20056;-86
2022/05/04 07:08:56;;;;;;;6.82;2.08;;;10.00;99.90;;;;;;5043507;28;20037;-86
2022/05/04 07:11:22;;;;;;;8.30;2.33;;;9.80;99.90;;;;;;5049605;28;20037;-85
2022/05/04 07:13:50;;;;;;;7.43;2.08;;;10.10;99.90;;;;;;5034597;28;20041;-85
2022/05/04 07:16:21;;;;;;;6.47;2.00;;;10.00;99.90;;;;;;5044661;28;20501;-84
2022/05/04 07:18:50;;;;;;;5.70;1.80;;;10.30;99.90;;;;;;5071255;28;20052;-86
2022/05/04 07:21:18;;;;;;;9.73;2.03;;;10.00;99.90;;;;;;5036302;28;20067;-85
2022/05/04 07:23:44;;;;;;;10.68;2.25;;;10.30;99.90;;;;;;5028238;28;20043;-85
2022/05/04 07:26:13;;;;;;;7.68;2.00;;;10.20;99.90;;;;;;5035342;28;20641;-86
2022/05/04 07:29:00;;;;;;;8.32;2.05;;;10.30;99.90;;;;;;5050788;28;20045;-85
2022/05/04 07:31:36;;;;;;;8.95;1.98;;;11.00;99.90;;;;;;5039255;28;20048;-85
2022/05/04 07:34:01;;;;;;;5.32;2.25;;;10.80;99.90;;;;;;5050847;28;20175;-85
2022/05/04 07:36:46;;;;;;;7.72;2.28;;;10.80;99.90;;;;;;5035089;28;20120;-85
2022/05/04 07:42:21;;;;;;;6.88;2.00;;;10.50;99.90;;;;;;5051099;28;20048;-85
2022/05/04 07:44:48;;;;;;;6.32;1.88;;;10.60;99.90;;;;;;5043399;28;20446;-85
2022/05/04 07:47:24;;;;;;;6.60;2.20;;;10.80;99.90;;;;;;5035508;28;20045;-85
2022/05/04 07:49:52;;;;;;;10.05;2.17;;;10.80;99.90;;;;;;5052949;28;20043;-84
2022/05/04 07:52:21;;;;;;;7.65;2.00;;;10.70;99.90;;;;;;5034930;28;20447;-85
2022/05/04 07:55:30;;;;;;;4.32;1.70;;;10.50;99.90;;;;;;5050196;28;20124;-85
2022/05/04 07:57:58;;;;;;;9.80;2.22;;;10.30;99.90;;;;;;5028129;28;20073;-84
2022/05/04 08:06:04;;;;;;;4.13;2.00;;;10.30;99.90;;;;;;5047565;28;20042;-85
2022/05/04 08:08:29;;;;;;;8.07;2.05;;;9.70;99.90;;;;;;5045946;28;20049;-85
2022/05/04 08:10:56;;;;;;;6.07;1.90;;;10.30;99.90;;;;;;5050061;28;20049;-85
2022/05/04 08:13:22;;;;;;;7.85;2.00;;;10.60;99.90;;;;;;5032160;28;20045;-85
2022/05/04 08:15:48;;;;;;;7.68;1.95;;;10.90;99.90;;;;;;5026181;28;20557;-85
2022/05/04 08:18:17;;;;;;;6.70;1.88;;;10.60;99.90;;;;;;5034910;28;20041;-84
2022/05/04 08:20:43;;;;;;;5.75;1.90;;;10.80;99.90;;;;;;5050196;28;20041;-86
2022/05/04 08:23:10;;;;;;;10.88;2.50;;;11.20;99.90;;;;;;5051278;28;20427;-85
2022/05/04 08:25:36;;;;;;;6.50;2.60;;;11.20;99.90;;;;;;5034157;28;20128;-84
2022/05/04 08:28:01;;;;;;;7.28;1.90;;;11.20;99.90;;;;;;5036346;28;20463;-84
2022/05/04 08:30:27;;;;;;;10.15;2.10;;;11.10;99.90;;;;;;5052258;28;20037;-84
2022/05/04 08:32:53;;;;;;;10.68;2.42;;;11.40;99.90;;;;;;5051613;28;20142;-84
2022/05/04 08:35:19;;;;;;;5.38;2.00;;;10.60;99.90;;;;;;5034590;28;20047;-84
2022/05/04 08:37:44;;;;;;;7.10;2.05;;;10.90;99.90;;;;;;5034616;28;20037;-85
2022/05/04 08:40:11;;;;;;;8.95;2.40;;;11.10;99.90;;;;;;5051502;28;20044;-85
2022/05/04 08:42:40;;;;;;;7.38;2.20;;;10.70;99.90;;;;;;5034753;28;20571;-84
2022/05/04 08:45:07;;;;;;;7.13;2.20;;;10.70;99.90;;;;;;5051065;28;20041;-85
2022/05/04 08:47:35;;;;;;;8.10;2.13;;;10.70;99.90;;;;;;5034445;28;20045;-85
2022/05/04 08:50:02;;;;;;;11.88;2.38;;;10.50;99.90;;;;;;5051415;28;20044;-85
2022/05/04 08:52:28;;;;;;;7.95;2.40;;;10.70;99.90;;;;;;5052060;28;20317;-85
2022/05/04 08:54:54;;;;;;;10.57;2.30;;;10.60;99.90;;;;;;5051547;28;20432;-85
2022/05/04 08:57:21;;;;;;;8.02;2.28;;;11.20;99.90;;;;;;5052780;28;20033;-85
2022/05/04 08:59:47;;;;;;;10.73;2.05;;;11.10;99.90;;;;;;5035121;28;20094;-85
2022/05/04 09:02:15;;;;;;;5.75;2.03;;;10.90;99.90;;;;;;5033444;28;20033;-87
2022/05/04 09:04:42;;;;;;;7.53;2.17;;;11.40;99.90;;;;;;5048398;28;20048;-84
2022/05/04 09:07:24;;;;;;;5.28;1.98;;;11.20;99.90;;;;;;5033662;28;20328;-85
2022/05/04 09:09:54;;;;;;;7.60;2.08;;;11.30;99.90;;;;;;5033965;28;20548;-85
2022/05/04 09:12:20;;;;;;;12.02;2.10;;;11.20;99.90;;;;;;5050254;28;20041;-85
2022/05/04 09:14:46;;;;;;;8.10;2.00;;;11.20;99.90;;;;;;5051603;28;20044;-85
2022/05/04 09:17:15;;;;;;;8.27;2.00;;;11.50;99.90;;;;;;5037422;28;20055;-85
2022/05/04 09:20:45;;;;;;;10.23;2.05;;;11.70;99.90;;;;;;5038392;28;20037;-85
2022/05/04 09:22:37;;;;;;;7.43;2.30;;;11.70;99.90;;;;;;5055537;28;20041;-85
2022/05/04 09:25:08;;;;;;;7.85;2.35;;;11.30;99.90;;;;;;5039662;28;20520;-85
2022/05/04 09:27:37;;;;;;;9.10;2.00;;;11.30;99.90;;;;;;5055009;28;20367;-85
2022/05/04 09:30:04;;;;;;;11.68;2.70;;;11.40;99.90;;;;;;5051401;28;20123;-85
2022/05/04 09:32:30;;;;;;;8.00;2.00;;;11.60;99.90;;;;;;5068258;28;20041;-86
2022/05/04 09:34:55;;;;;;;6.70;2.15;;;12.00;99.90;;;;;;5028999;28;20126;-86
2022/05/04 09:45:38;;;;;;;9.40;2.08;;;12.30;99.90;;;;;;5050446;28;20061;-87
2022/05/04 09:48:11;;;;;;;7.57;2.28;;;12.60;99.90;;;;;;5047760;28;20496;-87
2022/05/04 09:51:12;;;;;;;;;;;;;;;;;;;;;
2022/05/04 09:54:37;;;;;;;8.05;1.90;;;12.60;99.90;;;;;;5052495;28;20053;-85
2022/05/04 10:00:33;;;;;;;7.65;2.08;;;12.70;99.50;;;;;;5045070;28;20499;-87
2022/05/04 10:03:31;;;;;;;6.13;2.50;;;12.80;99.90;;;;;;5043860;28;20123;-87
2022/05/04 10:06:36;;;;;;;7.75;1.88;;;13.20;99.90;;;;;;5034174;28;20132;-87
2022/05/04 10:09:28;;;;;;;5.35;2.30;;;13.30;99.80;;;;;;5035829;28;20127;-87
2022/05/04 10:12:45;;;;;;;5.28;1.90;;;13.70;99.90;;;;;;5010267;28;20494;-87
2022/05/04 10:15:27;;;;;;;6.75;1.98;;;13.00;98.30;;;;;;4969009;28;20053;-85
2022/05/04 10:18:35;;;;;;;6.03;2.17;;;12.60;99.90;;;;;;4991284;28;20053;-86
2022/05/04 10:24:45;;;;;;;8.35;2.10;;;12.70;98.60;;;;;;5001620;28;20399;-86
2022/05/04 10:27:40;;;;;;;9.43;2.20;;;13.20;99.90;;;;;;5051297;28;20041;-86
2022/05/04 10:31:19;;;;;;;6.60;2.40;;;13.90;99.80;;;;;;5031406;28;20242;-86
2022/05/04 10:34:46;;;;;;;9.75;2.00;;;13.80;97.40;;;;;;5026949;28;20393;-86
2022/05/04 10:41:50;;;;;;;7.00;1.77;;;14.30;96.50;;;;;;5018168;28;20517;-86
2022/05/04 10:45:12;;;;;;;7.10;2.08;;;13.40;96.60;;;;;;5025164;28;20049;-87
2022/05/04 10:48:18;;;;;;;7.35;2.20;;;12.90;97.60;;;;;;4995332;28;20231;-86
2022/05/04 10:51:18;;;;;;;6.82;2.03;;;12.80;98.00;;;;;;4996509;28;20080;-88
2022/05/04 10:58:14;;;;;;;7.93;2.40;;;13.30;98.90;;;;;;5027459;28;20507;-87
2022/05/04 11:01:24;;;;;;;7.35;2.50;;;14.10;98.90;;;;;;5049118;28;20104;-87
2022/05/04 11:04:11;;;;;;;5.90;2.25;;;14.50;98.60;;;;;;5029974;28;20457;-85
2022/05/04 11:06:41;;;;;;;7.97;2.40;;;14.30;97.50;;;;;;5046377;28;20029;-86
2022/05/04 11:09:13;;;;;;;6.30;2.30;;;14.10;96.40;;;;;;5051800;28;20573;-86
2022/05/04 11:11:40;;;;;;;8.77;2.05;;;13.70;97.30;;;;;;5034910;28;20044;-87
2022/05/04 11:14:07;;;;;;;6.80;1.98;;;13.30;97.20;;;;;;5034568;28;20112;-87
2022/05/04 11:16:37;;;;;;;6.80;2.05;;;14.00;97.80;;;;;;5035491;28;20044;-86
2022/05/04 11:19:04;;;;;;;8.52;2.30;;;14.70;97.80;;;;;;5037125;28;20045;-85
2022/05/04 11:21:31;;;;;;;6.47;2.13;;;14.80;97.40;;;;;;5052424;28;20043;-82
2022/05/04 11:24:14;;;;;;;9.68;2.08;;;14.90;97.00;;;;;;5052082;28;20560;-88
2022/05/04 11:26:44;;;;;;;10.05;2.45;;;14.80;97.10;;;;;;5038556;28;20045;-86
2022/05/04 11:29:42;;;;;;;8.30;2.33;;;14.90;96.50;;;;;;5048251;28;20044;-88
2022/05/04 11:32:08;;;;;;;6.32;2.10;;;15.00;96.70;;;;;;5041596;28;20402;-87
2022/05/04 11:34:36;;;;;;;8.75;2.45;;;15.00;95.50;;;;;;5051692;28;20140;-86
2022/05/04 11:37:08;;;;;;;6.50;2.40;;;14.90;95.20;;;;;;5035179;28;20051;-88
2022/05/04 11:39:35;;;;;;;10.13;2.40;;;14.90;93.50;;;;;;5036664;28;20060;-86
2022/05/04 11:42:02;;;;;;;7.10;2.30;;;15.30;95.40;;;;;;5052036;28;20116;-86
2022/05/04 11:44:47;;;;;;;5.65;2.20;;;15.80;95.70;;;;;;5046067;28;20056;-87
2022/05/04 11:47:14;;;;;;;6.30;2.10;;;16.40;95.70;;;;;;5022347;28;20097;-88
2022/05/04 11:53:44;;;;;;;5.50;2.10;;;16.70;93.50;;;;;;5033218;28;20115;-88
2022/05/04 11:56:59;;;;;;;10.25;2.40;;;16.10;94.80;;;;;;5025511;28;20061;-90
2022/05/04 12:04:50;;;;;;;;;;;;;;;;;;;;;
2022/05/04 12:08:22;;;;;;;6.57;2.47;;;14.80;94.40;;;;;;4934338;29;20485;-90
2022/05/04 12:14:32;;;;;;;6.60;2.42;;;16.80;95.10;;;;;;4954926;28;20043;-87
2022/05/04 12:17:35;;;;;;;4.75;2.38;;;16.60;92.90;;;;;;4915678;29;20052;-88
2022/05/04 12:20:26;;;;;;;8.38;2.80;;;16.40;92.60;;;;;;4974098;28;20061;-89
2022/05/04 12:23:10;;;;;;;7.47;2.47;;;16.20;93.20;;;;;;4932913;28;20051;-89
2022/05/04 12:25:48;;;;;;;7.47;2.70;;;16.10;93.50;;;;;;5001840;28;20056;-88
2022/05/04 12:43:21;;;;;;;7.20;2.55;;;16.80;91.00;;;;;;4931529;29;20044;-90
2022/05/04 12:46:21;;;;;;;7.93;2.30;;;17.40;92.80;;;;;;4923098;29;20130;-89
2022/05/04 12:49:47;;;;;;;;;;;;;;;;;;;;;
2022/05/04 13:00:13;;;;;;;8.80;2.92;;;17.00;87.10;;;;;;4866405;29;20052;-89
2022/05/04 13:02:56;;;;;;;9.05;3.13;;;17.80;91.70;;;;;;4944998;28;20038;-88
2022/05/04 13:05:38;;;;;;;8.30;2.70;;;18.40;91.90;;;;;;5014520;28;20182;-89
2022/05/04 13:08:09;;;;;;;7.45;2.67;;;18.10;91.00;;;;;;5045311;28;20301;-89
2022/05/04 13:10:48;;;;;;;6.75;2.45;;;17.30;90.20;;;;;;5052556;28;20525;-89
2022/05/04 13:13:17;;;;;;;5.97;2.50;;;17.30;90.30;;;;;;5026763;28;20498;-89
2022/05/04 13:16:10;;;;;;;6.45;2.72;;;17.10;90.00;;;;;;5038052;28;20037;-89
2022/05/04 13:18:49;;;;;;;10.63;3.10;;;16.70;90.10;;;;;;5049850;28;20041;-89
2022/05/04 13:21:15;;;;;;;8.77;3.03;;;16.90;90.40;;;;;;5050637;28;20037;-88
2022/05/04 13:23:42;;;;;;;9.35;3.13;;;16.80;90.00;;;;;;5035827;28;20033;-88
2022/05/04 13:26:12;;;;;;;9.63;2.65;;;17.10;90.00;;;;;;5035343;28;20049;-87
2022/05/04 13:28:38;;;;;;;6.57;2.40;;;16.80;89.80;;;;;;5028424;28;20091;-87
2022/05/04 13:31:15;;;;;;;10.75;2.80;;;17.10;89.90;;;;;;5049361;28;20045;-90
2022/05/04 13:33:47;;;;;;;7.18;2.67;;;17.40;90.50;;;;;;5044499;28;20515;-86
2022/05/04 13:36:13;;;;;;;5.28;2.30;;;16.80;87.90;;;;;;5027695;28;20079;-88
2022/05/04 13:38:40;;;;;;;6.20;2.42;;;16.60;90.80;;;;;;5053086;28;20511;-87
2022/05/04 13:41:10;;;;;;;7.63;2.85;;;16.40;90.60;;;;;;5036349;28;20033;-89
2022/05/04 13:43:35;;;;;;;8.38;3.28;;;16.70;87.30;;;;;;5036114;28;20044;-89
2022/05/04 13:46:02;;;;;;;7.13;2.78;;;16.80;90.40;;;;;;5052303;28;20431;-88
2022/05/04 13:48:27;;;;;;;6.32;2.60;;;17.00;90.30;;;;;;5052632;28;20112;-89
2022/05/04 13:53:37;;;;;;;7.82;2.85;;;17.30;90.00;;;;;;5050742;28;20048;-89
2022/05/04 13:56:03;;;;;;;9.50;2.88;;;18.00;90.20;;;;;;5033649;28;20384;-90
2022/05/04 13:58:29;;;;;;;10.63;2.92;;;17.90;88.70;;;;;;5053196;28;20048;-88
2022/05/04 14:00:57;;;;;;;6.90;2.60;;;17.40;88.10;;;;;;5035101;28;20029;-87
2022/05/04 14:03:23;;;;;;;7.72;2.70;;;17.60;87.70;;;;;;5052478;28;20041;-88
2022/05/04 14:05:49;;;;;;;7.43;3.00;;;16.90;86.70;;;;;;5051732;28;20045;-88
2022/05/04 14:08:15;;;;;;;7.97;2.50;;;18.10;88.50;;;;;;5035867;28;20036;-88
2022/05/04 14:10:46;;;;;;;7.68;2.58;;;19.00;90.00;;;;;;5035711;28;20072;-88
2022/05/04 14:13:13;;;;;;;6.85;2.90;;;19.00;88.70;;;;;;5052641;28;20049;-88
2022/05/04 14:15:38;;;;;;;9.77;2.92;;;18.50;83.30;;;;;;5051620;28;20487;-88
2022/05/04 14:18:05;;;;;;;8.40;2.60;;;18.30;85.10;;;;;;5035580;28;20048;-88
2022/05/04 14:20:32;;;;;;;7.55;3.13;;;18.00;84.70;;;;;;5035602;28;20149;-88
2022/05/04 14:22:57;;;;;;;8.85;2.70;;;17.80;85.50;;;;;;5035414;28;20033;-88
2022/05/04 14:25:23;;;;;;;8.77;2.80;;;18.00;86.20;;;;;;5034886;28;20477;-88
2022/05/04 14:27:49;;;;;;;6.88;3.22;;;18.90;86.10;;;;;;5035740;28;20041;-89
2022/05/04 14:30:16;;;;;;;6.60;3.10;;;19.20;85.20;;;;;;5035150;28;20317;-89
2022/05/04 14:32:42;;;;;;;7.70;2.85;;;19.40;82.50;;;;;;5035437;28;20048;-87
2022/05/04 14:35:07;;;;;;;6.13;2.67;;;19.20;83.40;;;;;;5051171;28;20044;-87
2022/05/04 14:37:33;;;;;;;6.75;3.15;;;19.00;84.30;;;;;;5035280;28;20045;-87
2022/05/04 14:39:59;;;;;;;13.10;3.45;;;19.00;83.80;;;;;;5034853;28;20082;-87
2022/05/04 14:42:24;;;;;;;6.32;2.58;;;19.60;85.00;;;;;;5034825;28;20071;-88
2022/05/04 14:44:50;;;;;;;9.27;2.85;;;20.40;84.20;;;;;;5034573;28;20516;-88
2022/05/04 14:47:16;;;;;;;10.02;2.83;;;20.90;83.30;;;;;;5051591;28;20033;-88
2022/05/04 14:49:44;;;;;;;7.75;2.95;;;20.60;80.40;;;;;;5035100;28;20036;-87
2022/05/04 14:52:11;;;;;;;6.75;2.58;;;19.90;79.80;;;;;;5051541;28;20048;-87
2022/05/04 14:54:37;;;;;;;6.40;2.55;;;19.70;79.60;;;;;;5050559;28;20048;-88
2022/05/04 14:57:02;;;;;;;9.50;3.22;;;19.90;79.40;;;;;;5034795;28;20047;-86
2022/05/04 14:59:28;;;;;;;8.73;3.17;;;20.00;80.40;;;;;;5034512;28;20487;-87
2022/05/04 15:01:54;;;;;;;7.63;2.90;;;20.40;79.70;;;;;;5051238;28;20064;-87
2022/05/04 15:07:04;;;;;;;9.23;3.15;;;20.30;78.10;;;;;;5050397;28;20053;-87
2022/05/04 15:09:30;;;;;;;9.88;2.83;;;20.20;76.70;;;;;;5031642;28;20509;-86
2022/05/04 15:11:57;;;;;;;8.13;2.85;;;20.30;78.20;;;;;;5049563;28;20044;-87
2022/05/04 15:14:23;;;;;;;7.93;2.97;;;20.40;77.10;;;;;;5031750;28;20520;-86
2022/05/04 15:16:48;;;;;;;8.75;3.10;;;20.20;77.10;;;;;;5050922;28;20127;-87
2022/05/04 15:19:14;;;;;;;7.43;2.97;;;21.30;77.60;;;;;;5049680;28;20128;-86
2022/05/04 15:21:40;;;;;;;7.55;2.92;;;22.40;76.00;;;;;;5049927;28;20029;-85
2022/05/04 15:24:05;;;;;;;10.60;2.92;;;22.80;74.70;;;;;;5027271;28;20040;-86
2022/05/04 15:26:32;;;;;;;8.75;3.05;;;23.60;74.30;;;;;;5033761;28;20051;-85
2022/05/04 15:28:57;;;;;;;11.40;3.17;;;24.60;73.70;;;;;;5032470;28;20037;-86
2022/05/04 15:31:24;;;;;;;6.38;2.70;;;25.10;71.90;;;;;;5042129;28;20048;-85
2022/05/04 15:33:49;;;;;;;8.18;2.45;;;25.30;69.80;;;;;;5033348;28;20394;-84
2022/05/04 15:36:15;;;;;;;9.85;3.20;;;24.60;68.80;;;;;;5034307;28;20045;-86
2022/05/04 15:38:42;;;;;;;8.63;2.90;;;24.10;67.50;;;;;;5034370;28;20032;-85
2022/05/04 15:41:08;;;;;;;6.90;2.85;;;24.10;68.40;;;;;;5034342;28;20037;-85
2022/05/04 15:43:34;;;;;;;7.45;2.60;;;24.70;68.80;;;;;;5050845;28;20044;-86
2022/05/04 15:45:59;;;;;;;7.53;2.40;;;25.70;68.70;;;;;;5050297;28;20040;-86
2022/05/04 15:48:25;;;;;;;6.57;2.75;;;25.90;67.30;;;;;;5050764;28;20495;-87
2022/05/04 15:50:50;;;;;;;8.75;2.70;;;26.80;66.40;;;;;;5034212;28;20037;-87